Hlavní strana
METAR-TAF:

METAR-TAF

Letiště :

Ronneby, Švédsko

zeměpisná šířka: 56-16N, zeměpisná délka: 015-17E, výška: 58 m

Aktuální stav počasí

Zpráva byla vytvořena před 28 minutami, v 16:50 UTC
Západojihozápadní vítr 9 kt, proměnlivý mezi jihozápadním a západním
Teplota 4°C
Vlhkost vzduchu 87%
Tlak 994 hPa
Viditelnost 10 km a více
Oblačno až skoro zataženo ve výšce 2000 ft

METAR: ESDF 231650Z 25009KT 220V280 9999 BKN020 04/02 Q0994

Čas: 18:18 (17:18 UTC)

Předpověď počasí

Zpráva byla vytvořena před 2 hodinami a 48 minutami, v 14:30 UTC
Předpověď platná od 23 v 15 UTC do 23 v 23 UTC
Západní vítr 12 kt
Viditelnost 10 km a více
Polojasno ve výšce 3500 ft
Dočasný
od 23 v 15 UTC do 23 v 17 UTC
Oblačno až skoro zataženo ve výšce 2500 ft, Cumulonimbus.
dešťové přeháňky

TAF: ESDF 231430Z 2315/2323 28012KT 9999 SCT035 TEMPO 2315/2317 SHRA BKN025CB

Stav a předpovědi počasí z více než 4 000 letišť (zprávy METAR a TAF).

Červené a žluté tečky na mapě představují dostupné meteorologické stanice.

Když kurzor umístíte na tečku, zobrazí se název stanice.

Pak kliknutím zobrazíte stav a předpověď počasí.

Chcete-li změnit mapu, kliknutím na zelené tlačítko se znaménkem +mapu přiblížíte, kliknutím na zelené tlačítko se znaménkem – mapu oddálíte a kliknutím na zelené šipky přejdete na sousední mapy.


METAR-TAF: